Mobridge, SD (57601)

6:08 AM CST on January 20, 2017 (GMT -0600)
Mobridge Municipal | | Change Station
Active Advisory: Dense Fog Advisory

Elev 1713 ft 45.55 °N, 100.41 °W | Updated 16 minutes ago

Light Freezing Fog
Freezing Fog
25 °F
Feels Like 17 °F
N
7
Wind Variable Wind from North

Today
High -- | Low -- °F
--% Chance of Precip.
Yesterday
High -- | Low -- °F
Precip. -- in
Pressure 29.44 in
Visibility 0.5 miles
Clouds
Windchill 17 °F
Dew Point 21 °F
Humidity 85%
Rainfall 0.00 in
Snow Depth Not available.
8:14 AM 5:31 PM
Last Quarter, 45% visible
METAR KMBG 201152Z AUTO 35006KT 1/2SM FZFG VV003 M04/M06 A2936 RMK AO2 SLP967 I1001 I6010 T10391061 11033 21050 58013 $
Pressure 29.44 in
Visibility 0.5 miles
Clouds
Windchill 17 °F
Dew Point 21 °F
Humidity 85%
Rainfall 0.00 in
Snow Depth Not available.
8:14 AM 5:31 PM
Last Quarter, 45% visible
METAR KMBG 201152Z AUTO 35006KT 1/2SM FZFG VV003 M04/M06 A2936 RMK AO2 SLP967 I1001 I6010 T10391061 11033 21050 58013 $

Get Your Daily Forecast Email!

Thanks for signing up!

Be on the lookout for a verification email in your inbox.

You'll start receiving the daily forecast at 8 AM.

×

10-Day Weather Forecast

Almanac

Astronomy

Jan. 20, 2017 Rise Set
Actual Time
Civil Twilight
Nautical Twilight
Astronomical Twilight
Moon
Length of Visible Light
Length of Day
Tomorrow will be .
, % of the Moon is Illuminated

Today's Extremes

State Highs State Lows

Community

WunderPhotos

Upload Photos

1,962,540 photos uploaded!

WunderBlog® & News

Nearby

Air Quality

  Air Quality AQ Index Pollutant
Not available.

Snow Depth

Station Depth Elevation

Earthquake Activity

City Distance Mag. Time & Date
Minimum magnitude displayed is 2.5.

Coastal Water Temperatures

Place Temperature

Stations

Nearby Weather Stations

Station Location Temp. Windchill Dew Point Humidity Wind Precip. Elev Updated Type
                   

Watches & Warnings

Dense Fog Advisory
Issued: 2:32 AM MST Jan. 20, 2017 – National Weather Service

... Dense fog advisory remains in effect until noon CST /11 am
MST/ today...

* visibility... a quarter mile or less.

* Impacts... low visibility will result in difficult driving
conditions. In areas where the temperature is below freezing... the
fog may deposit on objects and surfaces including sidewalks and
roads... resulting in patchy slick spots. Travelers take caution.

Precautionary/preparedness actions...

A dense fog advisory means visibilities will frequently be
reduced to less than one quarter mile. If driving... slow down...
use your headlights... and leave plenty of distance ahead of you.